Time;durP1;ratioP1;P1;durP2;ratioP2;P2;SDS_P1;SDS_P2;PMS_P1;PMS_P2;Temp;Humidity;BMP_temperature;BMP_pressure;BME280_temperature;BME280_humidity;BME280_pressure;Samples;Min_cycle;Max_cycle;Signal;HPM_P1;HPM_P2
2022/09/25 00:00:22;;;;;;;18.37;15.60;;;;;;;12.47;100.00;154561.59;5023686;28;20446;-75
2022/09/25 00:02:50;;;;;;;18.07;16.17;;;;;;;12.46;100.00;154560.28;5054053;28;20431;-75
2022/09/25 00:05:16;;;;;;;20.57;16.83;;;;;;;12.47;100.00;154562.84;5045423;28;20483;-75
2022/09/25 00:07:43;;;;;;;20.77;17.73;;;;;;;12.52;100.00;154574.53;5040142;28;20489;-75
2022/09/25 00:10:10;;;;;;;17.00;14.70;;;;;;;12.52;100.00;154574.53;5036065;28;20469;-74
2022/09/25 00:12:37;;;;;;;17.60;14.33;;;;;;;12.45;100.00;154556.34;5034910;28;20753;-75
2022/09/25 00:15:04;;;;;;;17.67;14.67;;;;;;;12.42;100.00;154549.88;5018713;28;20522;-75
2022/09/25 00:17:32;;;;;;;19.20;15.77;;;;;;;12.37;100.00;154535.59;5016448;28;20538;-75
2022/09/25 00:20:00;;;;;;;19.43;15.40;;;;;;;12.36;100.00;154533.03;5033821;28;20432;-74
2022/09/25 00:22:26;;;;;;;16.40;14.70;;;;;;;12.34;100.00;154527.88;5015639;28;20467;-74
2022/09/25 00:24:54;;;;;;;16.93;14.90;;;;;;;12.33;100.00;154525.25;5021680;28;21011;-75
2022/09/25 00:27:20;;;;;;;16.87;15.07;;;;;;;12.32;100.00;154522.66;5052674;28;20822;-74
2022/09/25 00:29:47;;;;;;;17.50;15.70;;;;;;;12.30;100.00;154517.47;5035739;28;20485;-74
2022/09/25 00:32:14;;;;;;;17.27;14.80;;;;;;;12.30;100.00;154517.47;5049310;28;20777;-75
2022/09/25 00:34:40;;;;;;;15.20;13.60;;;;;;;12.29;100.00;154514.84;5042644;28;20448;-74
2022/09/25 00:37:08;;;;;;;18.03;16.13;;;;;;;12.33;100.00;154526.56;5042733;28;20498;-74
2022/09/25 00:39:35;;;;;;;18.13;14.73;;;;;;;12.35;100.00;154531.75;5035415;28;20462;-75
2022/09/25 00:42:02;;;;;;;16.43;14.73;;;;;;;12.28;100.00;154512.31;5035118;28;20438;-75
2022/09/25 00:44:57;;;;;;;17.40;14.00;;;;;;;12.26;100.00;154507.13;5052711;28;20427;-75
2022/09/25 00:47:28;;;;;;;17.60;15.00;;;;;;;12.30;100.00;154517.47;5006153;28;20529;-74
2022/09/25 00:49:56;;;;;;;16.60;14.60;;;;;;;12.32;100.00;154522.66;5033306;28;21013;-75
2022/09/25 00:52:25;;;;;;;19.50;15.90;;;;;;;12.34;100.00;154527.88;5033744;28;20515;-75
2022/09/25 00:54:55;;;;;;;17.90;14.37;;;;;;;12.36;100.00;154534.34;5015546;28;20452;-75
2022/09/25 00:57:25;;;;;;;16.50;14.10;;;;;;;12.35;100.00;154531.75;5022274;28;20427;-75
2022/09/25 00:59:56;;;;;;;17.37;14.37;;;;;;;12.36;100.00;154534.34;5034149;28;20441;-75
2022/09/25 01:02:25;;;;;;;18.63;16.00;;;;;;;12.40;100.00;154544.69;5052826;28;20470;-75
2022/09/25 01:04:52;;;;;;;17.10;14.80;;;;;;;12.40;100.00;154544.69;5043098;28;20439;-75
2022/09/25 01:07:19;;;;;;;17.70;15.80;;;;;;;12.43;100.00;154551.19;5041375;28;20460;-76
2022/09/25 01:09:47;;;;;;;21.23;17.70;;;;;;;12.45;100.00;154556.34;5051978;28;20779;-75
2022/09/25 01:12:14;;;;;;;25.27;20.13;;;;;;;12.48;100.00;154565.44;5051003;28;20433;-75
2022/09/25 01:14:40;;;;;;;23.47;18.50;;;;;;;12.48;100.00;154565.44;5034480;28;20476;-75
2022/09/25 01:17:14;;;;;;;19.73;17.10;;;;;;;12.48;100.00;154564.16;5033448;28;20439;-75
2022/09/25 01:19:49;;;;;;;25.23;18.13;;;;;;;12.49;100.00;154566.75;5052532;28;20890;-74
2022/09/25 01:22:22;;;;;;;25.00;20.17;;;;;;;12.55;100.00;154583.59;5051466;28;20430;-75
2022/09/25 01:24:58;;;;;;;22.83;17.23;;;;;;;12.54;100.00;154579.72;5033357;28;20451;-75
2022/09/25 01:27:40;;;;;;;23.10;18.37;;;;;;;12.53;100.00;154577.09;5030956;28;20451;-74
2022/09/25 01:30:12;;;;;;;22.90;18.13;;;;;;;12.55;100.00;154583.59;5032400;28;20478;-75
2022/09/25 01:32:48;;;;;;;25.07;19.07;;;;;;;12.56;100.00;154586.19;5026611;28;20541;-75
2022/09/25 01:35:17;;;;;;;23.77;20.00;;;;;;;12.57;100.00;154588.81;5033903;28;21005;-75
2022/09/25 01:37:46;;;;;;;21.97;18.23;;;;;;;12.58;100.00;154590.06;5034060;28;20470;-75
2022/09/25 01:40:16;;;;;;;25.50;19.30;;;;;;;12.59;100.00;154594.00;5021890;28;20443;-75
2022/09/25 01:42:48;;;;;;;23.53;18.93;;;;;;;12.59;100.00;154594.00;5040233;28;20437;-75
2022/09/25 01:45:19;;;;;;;23.70;19.40;;;;;;;12.59;100.00;154592.69;5052344;28;20427;-75
2022/09/25 01:47:49;;;;;;;21.20;16.93;;;;;;;12.59;100.00;154594.00;5031338;28;20440;-75
2022/09/25 01:50:19;;;;;;;25.47;20.00;;;;;;;12.61;100.00;154597.84;5014232;28;20464;-75
2022/09/25 01:52:49;;;;;;;23.23;19.87;;;;;;;12.62;100.00;154600.47;5014488;28;20733;-75
2022/09/25 01:55:19;;;;;;;23.27;18.30;;;;;;;12.62;100.00;154600.47;5032420;28;20435;-75
2022/09/25 01:57:48;;;;;;;26.90;20.87;;;;;;;12.62;100.00;154601.78;5018778;28;20457;-75
2022/09/25 02:00:20;;;;;;;23.17;18.10;;;;;;;12.63;100.00;154604.34;5036700;28;20506;-75
2022/09/25 02:02:54;;;;;;;25.40;19.30;;;;;;;12.63;100.00;154603.03;5032050;28;20417;-74
2022/09/25 02:05:25;;;;;;;29.77;19.17;;;;;;;12.65;100.00;154608.25;5014580;28;20431;-75
2022/09/25 02:07:55;;;;;;;26.30;18.33;;;;;;;12.62;100.00;154600.47;5032322;28;20444;-75
2022/09/25 02:10:27;;;;;;;23.90;18.43;;;;;;;12.61;100.00;154599.16;5032882;28;20494;-75
2022/09/25 02:12:56;;;;;;;27.30;19.27;;;;;;;12.60;100.00;154595.28;5035517;28;20538;-75
2022/09/25 02:15:28;;;;;;;24.47;19.47;;;;;;;12.59;100.00;154592.69;5048868;28;20462;-75
2022/09/25 02:20:46;;;;;;;22.30;17.13;;;;;;;12.61;100.00;154597.84;5020941;28;20435;-75
2022/09/25 02:23:17;;;;;;;23.00;17.00;;;;;;;12.63;100.00;154603.03;5051606;28;20426;-75
2022/09/25 02:25:47;;;;;;;24.10;18.03;;;;;;;12.63;100.00;154603.03;5051560;28;20484;-75
2022/09/25 02:28:15;;;;;;;24.87;18.27;;;;;;;12.61;100.00;154597.84;5051756;28;20496;-75
2022/09/25 02:30:44;;;;;;;26.20;18.67;;;;;;;12.57;100.00;154588.81;5032263;28;20459;-75
2022/09/25 02:33:10;;;;;;;22.50;16.90;;;;;;;12.59;100.00;154594.00;5054641;28;20435;-74
2022/09/25 02:35:37;;;;;;;24.17;16.23;;;;;;;12.57;100.00;154587.50;5055741;28;20526;-75
2022/09/25 02:38:04;;;;;;;33.60;16.73;;;;;;;12.55;100.00;154582.34;5033978;28;20859;-74
2022/09/25 02:40:36;;;;;;;33.47;15.67;;;;;;;12.55;100.00;154582.34;5033018;28;21016;-75
2022/09/25 02:43:11;;;;;;;29.83;16.73;;;;;;;12.52;100.00;154574.53;5034225;28;20435;-74
2022/09/25 02:45:45;;;;;;;99.77;18.43;;;;;;;12.45;100.00;154556.34;5034167;28;20878;-75
2022/09/25 02:48:17;;;;;;;57.50;17.30;;;;;;;12.41;100.00;154546.00;5028265;28;20440;-75
2022/09/25 02:50:50;;;;;;;175.23;23.80;;;;;;;12.35;100.00;154531.75;5022622;28;20468;-75
2022/09/25 02:53:21;;;;;;;256.87;26.53;;;;;;;12.28;100.00;154512.31;5019162;28;20803;-75
2022/09/25 02:55:51;;;;;;;140.73;20.43;;;;;;;12.23;100.00;154501.91;5032343;28;20440;-75
2022/09/25 02:58:23;;;;;;;245.23;26.77;;;;;;;12.20;100.00;154494.13;5034141;28;20563;-75
2022/09/25 03:00:53;;;;;;;124.73;18.30;;;;;;;12.23;100.00;154500.66;5033507;28;20478;-75
2022/09/25 03:03:21;;;;;;;123.83;20.70;;;;;;;12.23;100.00;154499.34;5035122;28;20515;-75
2022/09/25 03:05:49;;;;;;;97.57;20.90;;;;;;;12.23;100.00;154499.34;5016396;28;20455;-75
2022/09/25 03:11:00;;;;;;;21.17;15.00;;;;;;;12.25;100.00;154504.50;5029265;28;20471;-75
2022/09/25 03:13:30;;;;;;;52.37;15.97;;;;;;;12.26;100.00;154507.13;5035392;28;20442;-75
2022/09/25 03:16:02;;;;;;;32.40;14.67;;;;;;;12.26;100.00;154508.38;5032334;28;20408;-75
2022/09/25 03:18:29;;;;;;;19.97;15.40;;;;;;;12.28;100.00;154512.31;5033680;28;20454;-75
2022/09/25 03:20:56;;;;;;;17.97;15.30;;;;;;;12.31;100.00;154520.09;5031309;28;20431;-75
2022/09/25 03:23:23;;;;;;;17.87;15.97;;;;;;;12.31;100.00;154520.09;5013560;28;20528;-75
2022/09/25 03:25:49;;;;;;;16.80;14.00;;;;;;;12.32;100.00;154522.66;5015282;28;20440;-75
2022/09/25 03:28:17;;;;;;;19.50;16.20;;;;;;;12.34;100.00;154527.88;5014618;28;20472;-75
2022/09/25 03:30:44;;;;;;;17.30;14.80;;;;;;;12.35;100.00;154531.75;5014328;28;20472;-75
2022/09/25 03:33:13;;;;;;;18.40;14.73;;;;;;;12.41;100.00;154546.00;5029655;28;20513;-75
2022/09/25 03:35:39;;;;;;;16.50;12.93;;;;;;;12.41;100.00;154546.00;5037888;28;20461;-75
2022/09/25 03:38:09;;;;;;;15.43;13.60;;;;;;;12.47;100.00;154561.59;5060262;28;20487;-75
2022/09/25 03:40:35;;;;;;;15.37;13.20;;;;;;;12.44;100.00;154553.78;5038017;28;20805;-75
2022/09/25 03:43:02;;;;;;;15.13;13.60;;;;;;;12.39;100.00;154542.09;5016512;28;20444;-75
2022/09/25 03:45:29;;;;;;;14.50;12.27;;;;;;;12.39;100.00;154540.84;5016755;28;20462;-75
2022/09/25 03:47:56;;;;;;;17.63;14.43;;;;;;;12.38;100.00;154538.22;5034168;28;20436;-75
2022/09/25 03:50:24;;;;;;;15.07;12.90;;;;;;;12.33;100.00;154525.25;5015988;28;20439;-75
2022/09/25 03:52:50;;;;;;;16.20;13.70;;;;;;;12.29;100.00;154516.16;5016317;28;20894;-74
2022/09/25 03:55:18;;;;;;;16.13;12.50;;;;;;;12.23;100.00;154501.91;5035097;28;20446;-74
2022/09/25 03:57:44;;;;;;;15.70;12.40;;;;;;;12.21;100.00;154496.72;5046819;28;20451;-74
2022/09/25 04:00:13;;;;;;;31.67;13.17;;;;;;;12.26;100.00;154507.13;5016353;28;20817;-74
2022/09/25 04:02:40;;;;;;;13.93;12.07;;;;;;;12.20;100.00;154494.13;5034256;28;20431;-74
2022/09/25 04:05:08;;;;;;;14.07;12.57;;;;;;;12.20;100.00;154494.13;5043228;28;20461;-74
2022/09/25 04:07:36;;;;;;;17.47;13.30;;;;;;;12.23;100.00;154501.91;5038804;28;20446;-75
2022/09/25 04:10:03;;;;;;;13.80;11.97;;;;;;;12.25;100.00;154505.81;5016057;28;20444;-75
2022/09/25 04:12:30;;;;;;;12.93;11.30;;;;;;;12.22;100.00;154498.03;5034350;28;20973;-74
2022/09/25 04:14:56;;;;;;;15.50;13.80;;;;;;;12.21;100.00;154495.41;5015812;28;20539;-74
2022/09/25 04:17:23;;;;;;;12.67;11.30;;;;;;;12.19;100.00;154491.56;5034371;28;20476;-75
2022/09/25 04:19:51;;;;;;;15.43;12.50;;;;;;;12.15;100.00;154481.16;5016135;28;20443;-75
2022/09/25 04:22:18;;;;;;;38.13;13.90;;;;;;;12.09;100.00;154465.63;5033606;28;20443;-75
2022/09/25 04:24:49;;;;;;;14.33;11.60;;;;;;;12.09;100.00;154464.31;5033739;28;20910;-74
2022/09/25 04:27:17;;;;;;;14.80;11.83;;;;;;;12.09;100.00;154465.63;5015370;28;20448;-75
2022/09/25 04:29:44;;;;;;;16.70;12.10;;;;;;;12.09;100.00;154464.31;5015963;28;20455;-75
2022/09/25 04:34:55;;;;;;;14.40;12.27;;;;;;;12.13;100.00;154475.97;5034768;28;22143;-74
2022/09/25 04:37:22;;;;;;;20.63;13.10;;;;;;;12.12;100.00;154473.41;5026924;28;20574;-74
2022/09/25 04:39:50;;;;;;;14.23;12.07;;;;;;;12.15;100.00;154481.16;5018106;28;20631;-74
2022/09/25 04:42:17;;;;;;;15.80;12.63;;;;;;;12.15;100.00;154479.91;5033424;28;20424;-74
2022/09/25 04:44:43;;;;;;;16.30;13.10;;;;;;;12.13;100.00;154475.97;5032855;28;20451;-74
2022/09/25 04:47:10;;;;;;;14.43;11.97;;;;;;;12.12;100.00;154473.41;5033565;28;20470;-74
2022/09/25 04:49:37;;;;;;;15.93;13.73;;;;;;;12.13;100.00;154474.66;5033620;28;20554;-74
2022/09/25 04:52:05;;;;;;;14.80;11.87;;;;;;;12.16;100.00;154483.78;5031722;28;20471;-74
2022/09/25 04:54:31;;;;;;;17.53;11.73;;;;;;;12.18;100.00;154488.94;5032577;28;20443;-74
2022/09/25 04:57:01;;;;;;;27.10;14.10;;;;;;;12.11;100.00;154470.81;5014542;28;20440;-75
2022/09/25 04:59:28;;;;;;;71.60;15.37;;;;;;;12.03;100.00;154450.06;5013573;28;20966;-74
2022/09/25 05:01:55;;;;;;;105.80;16.33;;;;;;;11.99;100.00;154438.41;5047927;28;20906;-75
2022/09/25 05:04:21;;;;;;;128.93;17.53;;;;;;;11.98;100.00;154437.09;5030540;28;20457;-74
2022/09/25 05:06:50;;;;;;;127.70;18.70;;;;;;;12.03;100.00;154450.06;5023094;28;20444;-74
2022/09/25 05:09:17;;;;;;;147.30;18.17;;;;;;;12.02;100.00;154446.19;5014707;28;20450;-74
2022/09/25 05:11:46;;;;;;;107.47;14.83;;;;;;;12.00;100.00;154442.28;5032205;28;20451;-74
2022/09/25 05:14:14;;;;;;;69.00;13.67;;;;;;;12.00;100.00;154442.28;5014941;28;20443;-74
2022/09/25 05:16:40;;;;;;;61.13;15.00;;;;;;;11.95;100.00;154429.31;5031278;28;20446;-75
2022/09/25 05:19:07;;;;;;;38.63;12.20;;;;;;;11.95;100.00;154429.31;5054330;28;20453;-74
2022/09/25 05:21:34;;;;;;;16.33;12.20;;;;;;;11.93;100.00;154424.16;5018950;28;20436;-74
2022/09/25 05:24:01;;;;;;;14.70;11.27;;;;;;;11.87;100.00;154408.56;5033073;28;20479;-74
2022/09/25 05:26:29;;;;;;;13.20;11.33;;;;;;;11.88;100.00;154411.19;5014854;28;20435;-75
2022/09/25 05:28:55;;;;;;;13.83;10.83;;;;;;;11.90;100.00;154416.38;5013921;28;20506;-74
2022/09/25 05:31:23;;;;;;;14.70;10.67;;;;;;;11.96;100.00;154430.63;5026807;28;20470;-74
2022/09/25 05:33:50;;;;;;;15.40;11.13;;;;;;;11.92;100.00;154421.53;5014790;28;20455;-87
2022/09/25 05:36:17;;;;;;;13.87;11.07;;;;;;;11.89;100.00;154413.75;5032528;28;20424;-87
2022/09/25 05:38:44;;;;;;;11.90;10.27;;;;;;;11.92;100.00;154420.22;5015067;28;20487;-87
2022/09/25 05:41:11;;;;;;;13.47;9.70;;;;;;;11.92;100.00;154421.53;5015119;28;20454;-87
2022/09/25 05:43:40;;;;;;;18.50;9.57;;;;;;;11.98;100.00;154437.09;5015201;28;20438;-86
2022/09/25 05:46:06;;;;;;;13.80;9.27;;;;;;;11.89;100.00;154413.75;5015233;28;20953;-86
2022/09/25 05:48:34;;;;;;;12.90;10.70;;;;;;;11.90;100.00;154416.38;5015240;28;20431;-87
2022/09/25 05:51:01;;;;;;;14.07;10.57;;;;;;;11.86;100.00;154405.97;5014752;28;20428;-87
2022/09/25 05:53:29;;;;;;;11.63;9.13;;;;;;;11.92;100.00;154420.22;5014344;28;20470;-87
2022/09/25 05:55:57;;;;;;;15.90;9.73;;;;;;;11.95;100.00;154428.00;5014595;28;20432;-87
2022/09/25 05:58:24;;;;;;;13.70;10.90;;;;;;;11.93;100.00;154424.16;5017604;28;20450;-87
2022/09/25 06:00:51;;;;;;;19.47;10.87;;;;;;;11.96;100.00;154431.94;5033994;28;20438;-87
2022/09/25 06:03:18;;;;;;;12.30;9.60;;;;;;;11.99;100.00;154439.66;5030514;28;21013;-87
2022/09/25 06:05:46;;;;;;;12.53;9.33;;;;;;;12.02;100.00;154446.19;5041049;28;20435;-87
2022/09/25 06:08:14;;;;;;;13.23;9.83;;;;;;;12.02;100.00;154446.19;5041296;28;20430;-87
2022/09/25 06:10:41;;;;;;;13.47;11.70;;;;;;;12.02;100.00;154447.44;5041127;28;20415;-87
2022/09/25 06:13:08;;;;;;;11.87;9.73;;;;;;;12.07;100.00;154459.16;5041243;28;20834;-87
2022/09/25 06:15:37;;;;;;;28.33;10.33;;;;;;;12.08;100.00;154463.03;5046294;28;20441;-87
2022/09/25 06:18:04;;;;;;;15.90;10.20;;;;;;;12.10;100.00;154468.19;5041610;28;20431;-87
2022/09/25 06:20:31;;;;;;;14.37;9.83;;;;;;;12.15;100.00;154481.16;5041025;28;20446;-87
2022/09/25 06:22:59;;;;;;;13.00;9.87;;;;;;;12.19;100.00;154491.56;5024863;28;20433;-88
2022/09/25 06:25:28;;;;;;;12.20;9.53;;;;;;;12.23;100.00;154500.66;5024797;28;20952;-88
2022/09/25 06:27:55;;;;;;;12.67;9.60;;;;;;;12.26;100.00;154507.13;5024754;28;20517;-87
2022/09/25 06:30:26;;;;;;;14.90;10.40;;;;;;;12.26;100.00;154507.13;5041194;28;20426;-87
2022/09/25 06:32:57;;;;;;;14.93;12.60;;;;;;;12.31;100.00;154521.34;5018464;28;20573;-88
2022/09/25 06:35:23;;;;;;;14.27;11.53;;;;;;;12.32;100.00;154522.66;5024803;28;20434;-88
2022/09/25 06:37:50;;;;;;;12.93;10.93;;;;;;;12.34;100.00;154527.88;5041037;28;20466;-87
2022/09/25 06:40:19;;;;;;;13.83;11.40;;;;;;;12.36;100.00;154533.03;5024780;28;20503;-88
2022/09/25 06:42:45;;;;;;;15.53;11.80;;;;;;;12.40;100.00;154543.41;5024435;28;20435;-88
2022/09/25 06:45:12;;;;;;;13.90;11.30;;;;;;;12.42;100.00;154548.56;5029045;28;20793;-88
2022/09/25 06:47:38;;;;;;;17.67;13.03;;;;;;;12.42;100.00;154548.56;5006135;28;20799;-88
2022/09/25 06:50:07;;;;;;;14.23;11.50;;;;;;;12.44;100.00;154555.09;5004597;28;20432;-88
2022/09/25 06:52:33;;;;;;;15.30;12.43;;;;;;;12.45;100.00;154556.34;5025442;28;20472;-88
2022/09/25 06:55:00;;;;;;;15.10;12.10;;;;;;;12.51;100.00;154571.94;5024921;28;20451;-88
2022/09/25 06:57:29;;;;;;;15.40;11.47;;;;;;;12.56;100.00;154584.91;5025033;28;20500;-88
2022/09/25 06:59:56;;;;;;;17.50;13.57;;;;;;;12.59;100.00;154594.00;5027671;28;20451;-88
2022/09/25 07:05:07;;;;;;;16.90;12.33;;;;;;;12.62;100.00;154600.47;5027800;28;20485;-88
2022/09/25 07:07:34;;;;;;;18.50;13.73;;;;;;;12.62;100.00;154600.47;5042716;28;20929;-88
2022/09/25 07:10:01;;;;;;;18.57;13.47;;;;;;;12.60;100.00;154595.28;5041021;28;20549;-88
2022/09/25 07:12:30;;;;;;;18.53;14.53;;;;;;;12.66;100.00;154610.81;5012148;28;20498;-88
2022/09/25 07:14:56;;;;;;;18.17;12.30;;;;;;;12.66;100.00;154610.81;5002705;28;20443;-88
2022/09/25 07:17:23;;;;;;;16.77;12.37;;;;;;;12.68;100.00;154616.03;5000630;28;20805;-88
2022/09/25 07:19:50;;;;;;;19.20;13.97;;;;;;;12.72;100.00;154627.72;5000717;28;20787;-88
2022/09/25 07:22:16;;;;;;;15.60;12.07;;;;;;;12.75;100.00;154634.19;5017277;28;20424;-88
2022/09/25 07:24:43;;;;;;;15.47;12.70;;;;;;;12.76;100.00;154636.81;5009901;28;20462;-89
2022/09/25 07:27:10;;;;;;;15.67;12.40;;;;;;;12.81;100.00;154651.03;5001431;28;20475;-88
2022/09/25 07:29:38;;;;;;;15.70;13.00;;;;;;;12.79;100.00;154644.53;5000913;28;20432;-88
2022/09/25 07:32:05;;;;;;;13.40;10.30;;;;;;;12.82;100.00;154652.31;5028602;28;20471;-88
2022/09/25 07:34:34;;;;;;;13.40;11.17;;;;;;;12.85;100.00;154660.13;5021600;28;20443;-88
2022/09/25 07:37:01;;;;;;;14.83;11.30;;;;;;;12.84;100.00;154658.81;5013288;28;20443;-88
2022/09/25 07:39:27;;;;;;;12.43;11.13;;;;;;;12.88;100.00;154667.91;5023110;28;20440;-88
2022/09/25 07:41:54;;;;;;;16.57;11.47;;;;;;;12.90;100.00;154673.09;5000962;28;20953;-88
2022/09/25 07:44:21;;;;;;;15.20;11.90;;;;;;;12.95;100.00;154684.75;5017637;28;20456;-88
2022/09/25 07:46:50;;;;;;;13.10;11.37;;;;;;;12.95;100.00;154686.06;5024356;28;20546;-88
2022/09/25 07:49:16;;;;;;;13.40;11.80;;;;;;;12.94;100.00;154682.19;5017762;28;20455;-88
2022/09/25 07:51:43;;;;;;;13.03;11.30;;;;;;;12.97;100.00;154689.97;5002096;28;20436;-87
2022/09/25 07:54:10;;;;;;;12.57;11.27;;;;;;;13.02;100.00;154704.25;5001341;28;20525;-88
2022/09/25 07:56:37;;;;;;;13.90;11.00;;;;;;;13.03;100.00;154706.81;5001387;28;20425;-88
2022/09/25 07:59:03;;;;;;;15.80;11.27;;;;;;;13.06;100.00;154713.28;5001089;28;20448;-88
2022/09/25 08:01:30;;;;;;;14.90;12.63;;;;;;;13.07;100.00;154717.25;5005196;28;20797;-88
2022/09/25 08:03:58;;;;;;;14.97;11.77;;;;;;;13.09;100.00;154721.13;5001478;28;20447;-88
2022/09/25 08:06:25;;;;;;;12.20;10.80;;;;;;;13.14;100.00;154735.41;5015022;28;20444;-88
2022/09/25 08:08:51;;;;;;;13.30;11.53;;;;;;;13.17;100.00;154741.91;4999498;28;20443;-88
2022/09/25 08:11:18;;;;;;;12.90;11.60;;;;;;;13.18;100.00;154745.81;5007229;28;20788;-88
2022/09/25 08:13:46;;;;;;;17.20;12.30;;;;;;;13.22;100.00;154756.19;4999156;28;20474;-88
2022/09/25 08:16:14;;;;;;;13.73;11.70;;;;;;;13.19;100.00;154748.38;5016605;28;20527;-88
2022/09/25 08:18:42;;;;;;;14.80;12.30;;;;;;;13.19;100.00;154748.38;5026036;28;20459;-87
2022/09/25 08:21:12;;;;;;;13.33;11.30;;;;;;;13.18;100.00;154745.81;5039755;28;20942;-88
2022/09/25 08:23:40;;;;;;;13.50;11.47;;;;;;;13.20;100.00;154751.00;5057363;28;20667;-87
2022/09/25 08:26:07;;;;;;;12.17;10.87;;;;;;;13.21;100.00;154753.56;5054141;28;20434;-88
2022/09/25 08:28:33;;;;;;;14.07;11.97;;;;;;;13.19;100.00;154748.38;5052545;28;20497;-88
2022/09/25 08:31:02;;;;;;;12.43;10.40;;;;;;;13.25;100.00;154762.66;5020094;28;20467;-87
2022/09/25 08:33:29;;;;;;;11.77;10.57;;;;;;;13.34;100.00;154786.03;5027065;28;20562;-87
2022/09/25 08:35:57;;;;;;;12.10;10.20;;;;;;;13.39;100.00;154800.31;5050655;28;20518;-87
2022/09/25 08:38:28;;;;;;;11.93;10.50;;;;;;;13.49;100.00;154823.66;5042476;28;20463;-87
2022/09/25 08:40:57;;;;;;;11.60;10.20;;;;;;;13.55;100.00;154840.53;5032344;28;20657;-87
2022/09/25 08:43:26;;;;;;;11.90;10.53;;;;;;;13.66;100.00;154867.78;5034713;28;20435;-87
2022/09/25 08:49:05;;;;;;;11.07;9.87;;;;;;;13.66;100.00;154867.78;5016491;28;20455;-87
2022/09/25 08:51:34;;;;;;;12.23;10.00;;;;;;;13.74;100.00;154888.56;5033190;28;20470;-88
2022/09/25 08:54:03;;;;;;;12.43;10.47;;;;;;;13.80;100.00;154904.09;5034069;28;20479;-88
2022/09/25 08:56:31;;;;;;;11.87;9.83;;;;;;;13.90;100.00;154930.06;5019482;28;20462;-86
2022/09/25 08:59:02;;;;;;;10.93;9.67;;;;;;;13.95;100.00;154943.09;5050615;28;20452;-88
2022/09/25 09:01:40;;;;;;;11.50;10.27;;;;;;;13.93;100.00;154939.16;5049161;28;20524;-87
2022/09/25 09:04:13;;;;;;;10.40;9.13;;;;;;;13.96;100.00;154945.66;5002681;28;20459;-87
2022/09/25 09:06:41;;;;;;;11.97;10.30;;;;;;;14.06;100.00;154971.59;5016838;28;20440;-88
2022/09/25 09:09:13;;;;;;;12.23;11.03;;;;;;;14.10;100.00;154980.72;5031868;28;20459;-88
2022/09/25 09:11:42;;;;;;;11.97;10.70;;;;;;;14.18;100.00;155002.78;5012697;28;20651;-88
2022/09/25 09:14:14;;;;;;;9.37;8.47;;;;;;;14.21;100.00;155010.59;5013211;28;20495;-88
2022/09/25 09:16:43;;;;;;;10.93;9.83;;;;;;;14.29;100.00;155031.38;5046706;28;21099;-88
2022/09/25 09:19:11;;;;;;;10.13;9.13;;;;;;;14.35;100.00;155046.97;5051544;28;20538;-88
2022/09/25 09:21:38;;;;;;;9.83;8.83;;;;;;;14.30;100.00;155033.94;5030811;28;20475;-88
2022/09/25 09:24:10;;;;;;;10.53;9.43;;;;;;;14.37;100.00;155050.88;5030547;28;20463;-88
2022/09/25 09:26:54;;;;;;;9.87;8.67;;;;;;;14.47;100.00;155076.84;5050118;28;20962;-88
2022/09/25 09:29:36;;;;;;;10.13;8.43;;;;;;;14.44;100.00;155070.38;5050877;28;20493;-88
2022/09/25 09:32:14;;;;;;;10.57;9.50;;;;;;;14.47;100.00;155076.84;5049759;28;20478;-88
2022/09/25 09:34:56;;;;;;;9.40;7.87;;;;;;;14.46;100.00;155075.53;5033848;28;20475;-88
2022/09/25 09:37:30;;;;;;;9.07;7.80;;;;;;;14.36;100.00;155049.59;5041963;28;20472;-88
2022/09/25 09:40:10;;;;;;;11.50;7.43;;;;;;;14.36;100.00;155048.28;5011549;28;20434;-87
2022/09/25 09:42:44;;;;;;;7.70;7.00;;;;;;;14.31;100.00;155036.59;5028828;28;20430;-88
2022/09/25 09:45:18;;;;;;;8.40;7.50;;;;;;;14.31;100.00;155036.59;5047204;28;20543;-88
2022/09/25 09:47:49;;;;;;;8.50;7.70;;;;;;;14.27;100.00;155024.88;5049121;28;20423;-88
2022/09/25 09:50:24;;;;;;;10.40;8.50;;;;;;;14.29;100.00;155031.38;5031682;28;20549;-87
2022/09/25 09:52:54;;;;;;;9.03;8.13;;;;;;;14.22;100.00;155013.16;5038101;28;20962;-88
2022/09/25 09:55:25;;;;;;;10.07;8.00;;;;;;;14.30;100.00;155033.94;5030596;28;20997;-87
2022/09/25 09:57:54;;;;;;;8.80;7.90;;;;;;;14.24;100.00;155018.38;5031674;28;20440;-87
2022/09/25 10:00:23;;;;;;;10.13;8.73;;;;;;;14.24;100.00;155018.38;5015628;28;20512;-88
2022/09/25 10:02:53;;;;;;;9.70;8.70;;;;;;;14.36;100.00;155049.59;5014607;28;20440;-88
2022/09/25 10:05:23;;;;;;;9.77;8.83;;;;;;;14.29;100.00;155031.38;5046988;28;20442;-86
2022/09/25 10:07:51;;;;;;;11.03;8.73;;;;;;;14.39;100.00;155057.38;5034766;28;20477;-88
2022/09/25 10:10:19;;;;;;;9.60;8.60;;;;;;;14.46;100.00;155075.53;5035534;28;20445;-88
2022/09/25 10:12:49;;;;;;;13.80;9.00;;;;;;;14.46;100.00;155074.25;5045602;28;20450;-88
2022/09/25 10:15:21;;;;;;;11.10;10.00;;;;;;;14.51;100.00;155088.53;5031498;28;20442;-88
2022/09/25 10:17:48;;;;;;;11.40;9.50;;;;;;;14.57;100.00;155102.81;5052203;28;20777;-88
2022/09/25 10:20:20;;;;;;;10.00;9.00;;;;;;;14.49;100.00;155083.34;5052822;28;20535;-88
2022/09/25 10:22:50;;;;;;;9.20;8.30;;;;;;;14.45;100.00;155072.97;5034992;28;20775;-88
2022/09/25 10:25:35;;;;;;;9.17;8.00;;;;;;;14.55;100.00;155098.94;5018995;28;20466;-88
2022/09/25 10:28:26;;;;;;;8.87;7.97;;;;;;;14.55;100.00;155098.94;5034578;28;20443;-88
2022/09/25 10:30:54;;;;;;;8.97;8.07;;;;;;;14.53;100.00;155093.72;5034636;28;20922;-88
2022/09/25 10:33:22;;;;;;;9.93;8.80;;;;;;;14.60;100.00;155110.63;5034404;28;20565;-87
2022/09/25 10:35:53;;;;;;;9.73;8.30;;;;;;;14.56;100.00;155101.50;5018176;28;20489;-88
2022/09/25 10:38:37;;;;;;;11.50;9.07;;;;;;;14.64;100.00;155122.28;5034762;28;20801;-88
2022/09/25 10:41:08;;;;;;;10.40;9.40;;;;;;;14.70;100.00;155136.59;5035009;28;20442;-88
2022/09/25 10:43:50;;;;;;;9.73;8.53;;;;;;;14.79;100.00;155158.69;5050466;28;20451;-88
2022/09/25 10:50:09;;;;;;;9.53;8.63;;;;;;;14.71;100.00;155137.91;5051454;28;20437;-88
2022/09/25 10:52:10;;;;;;;9.27;8.37;;;;;;;14.70;100.00;155136.59;5035425;28;20523;-87
2022/09/25 10:54:38;;;;;;;10.03;9.03;;;;;;;14.73;100.00;155144.38;5002071;28;20574;-88
2022/09/25 10:57:17;;;;;;;10.03;8.80;;;;;;;14.62;100.00;155117.09;5036187;28;20479;-87
2022/09/25 10:59:49;;;;;;;9.57;8.60;;;;;;;14.71;100.00;155137.91;5039450;28;20462;-86
2022/09/25 11:02:28;;;;;;;8.97;8.07;;;;;;;14.66;100.00;155124.91;5053869;28;20427;-88
2022/09/25 11:04:55;;;;;;;8.97;8.07;;;;;;;14.60;100.00;155110.63;5055304;28;20439;-75
2022/09/25 11:07:26;;;;;;;9.20;8.40;;;;;;;14.59;100.00;155109.31;5033428;28;20432;-75
2022/09/25 11:09:57;;;;;;;9.57;8.67;;;;;;;14.57;100.00;155104.13;5023306;28;20451;-75
2022/09/25 11:12:27;;;;;;;9.97;8.97;;;;;;;14.45;100.00;155072.97;5032668;28;20442;-75
2022/09/25 11:14:57;;;;;;;11.73;10.40;;;;;;;14.37;100.00;155050.88;5034294;28;20459;-75
2022/09/25 11:17:37;;;;;;;12.43;10.00;;;;;;;14.29;100.00;155031.38;5039685;28;20437;-74
2022/09/25 11:20:28;;;;;;;12.70;10.77;;;;;;;14.27;100.00;155024.88;5053420;28;20942;-75
2022/09/25 11:23:17;;;;;;;13.63;10.77;;;;;;;14.17;100.00;154998.88;5035034;28;20431;-74
2022/09/25 11:25:48;;;;;;;11.63;10.43;;;;;;;14.07;100.00;154972.91;5054453;28;20502;-74
2022/09/25 11:28:20;;;;;;;13.53;11.87;;;;;;;14.07;100.00;154974.22;5035988;28;20526;-74
2022/09/25 11:30:53;;;;;;;12.63;11.33;;;;;;;14.14;100.00;154992.38;5035567;28;20510;-74